sensor_id;sensor_type;location;lat;lon;timestamp;P1;durP1;ratioP1;P2;durP2;ratioP2
48403;SDS011;34202;52.536;6.042;2023-07-20T00:04:57;1.70;;;1.30;;
48403;SDS011;34202;52.536;6.042;2023-07-20T00:09:58;1.50;;;1.20;;
48403;SDS011;34202;52.536;6.042;2023-07-20T00:14:58;1.30;;;1.10;;
48403;SDS011;34202;52.536;6.042;2023-07-20T00:19:59;1.20;;;1.00;;
48403;SDS011;34202;52.536;6.042;2023-07-20T00:24:59;0.90;;;0.80;;
48403;SDS011;34202;52.536;6.042;2023-07-20T00:29:59;1.40;;;1.00;;
48403;SDS011;34202;52.536;6.042;2023-07-20T00:35:00;1.20;;;1.00;;
48403;SDS011;34202;52.536;6.042;2023-07-20T00:40:00;1.20;;;1.00;;
48403;SDS011;34202;52.536;6.042;2023-07-20T00:45:01;2.20;;;1.00;;
48403;SDS011;34202;52.536;6.042;2023-07-20T00:50:01;1.80;;;1.10;;
48403;SDS011;34202;52.536;6.042;2023-07-20T00:55:03;1.80;;;1.20;;
48403;SDS011;34202;52.536;6.042;2023-07-20T01:00:04;1.50;;;1.30;;
48403;SDS011;34202;52.536;6.042;2023-07-20T01:05:06;1.40;;;1.30;;
48403;SDS011;34202;52.536;6.042;2023-07-20T01:10:12;1.80;;;1.40;;
48403;SDS011;34202;52.536;6.042;2023-07-20T01:15:33;2.30;;;1.30;;
48403;SDS011;34202;52.536;6.042;2023-07-20T01:20:34;2.60;;;1.90;;
48403;SDS011;34202;52.536;6.042;2023-07-20T01:36:50;2.40;;;2.20;;
48403;SDS011;34202;52.536;6.042;2023-07-20T01:41:53;2.60;;;2.40;;
48403;SDS011;34202;52.536;6.042;2023-07-20T01:46:55;2.50;;;2.10;;
48403;SDS011;34202;52.536;6.042;2023-07-20T01:51:56;2.20;;;2.00;;
48403;SDS011;34202;52.536;6.042;2023-07-20T01:56:56;2.10;;;2.00;;
48403;SDS011;34202;52.536;6.042;2023-07-20T02:01:56;2.90;;;2.70;;
48403;SDS011;34202;52.536;6.042;2023-07-20T02:06:57;2.80;;;2.40;;
48403;SDS011;34202;52.536;6.042;2023-07-20T02:11:57;3.40;;;2.40;;
48403;SDS011;34202;52.536;6.042;2023-07-20T02:16:57;2.60;;;2.40;;
48403;SDS011;34202;52.536;6.042;2023-07-20T02:21:59;2.30;;;2.10;;
48403;SDS011;34202;52.536;6.042;2023-07-20T02:26:59;3.00;;;2.70;;
48403;SDS011;34202;52.536;6.042;2023-07-20T02:32:00;3.60;;;2.80;;
48403;SDS011;34202;52.536;6.042;2023-07-20T02:37:00;2.60;;;2.40;;
48403;SDS011;34202;52.536;6.042;2023-07-20T02:42:01;3.10;;;2.90;;
48403;SDS011;34202;52.536;6.042;2023-07-20T02:47:01;3.30;;;3.00;;
48403;SDS011;34202;52.536;6.042;2023-07-20T02:52:01;2.80;;;2.60;;
48403;SDS011;34202;52.536;6.042;2023-07-20T02:57:02;3.00;;;2.80;;
48403;SDS011;34202;52.536;6.042;2023-07-20T03:02:02;3.20;;;2.80;;
48403;SDS011;34202;52.536;6.042;2023-07-20T03:07:06;2.80;;;2.60;;
48403;SDS011;34202;52.536;6.042;2023-07-20T03:12:07;6.70;;;3.00;;
48403;SDS011;34202;52.536;6.042;2023-07-20T03:17:08;3.20;;;2.90;;
48403;SDS011;34202;52.536;6.042;2023-07-20T03:22:08;3.10;;;2.70;;
48403;SDS011;34202;52.536;6.042;2023-07-20T03:27:09;3.20;;;2.90;;
48403;SDS011;34202;52.536;6.042;2023-07-20T03:32:09;6.00;;;2.80;;
48403;SDS011;34202;52.536;6.042;2023-07-20T03:37:10;3.70;;;3.40;;
48403;SDS011;34202;52.536;6.042;2023-07-20T03:42:10;4.10;;;3.70;;
48403;SDS011;34202;52.536;6.042;2023-07-20T03:47:11;3.60;;;3.30;;
48403;SDS011;34202;52.536;6.042;2023-07-20T03:52:11;4.00;;;3.70;;
48403;SDS011;34202;52.536;6.042;2023-07-20T03:57:11;4.00;;;3.60;;
48403;SDS011;34202;52.536;6.042;2023-07-20T04:02:12;5.20;;;3.90;;
48403;SDS011;34202;52.536;6.042;2023-07-20T04:07:12;6.20;;;4.20;;
48403;SDS011;34202;52.536;6.042;2023-07-20T04:12:12;4.20;;;3.40;;
48403;SDS011;34202;52.536;6.042;2023-07-20T04:17:13;5.50;;;3.20;;
48403;SDS011;34202;52.536;6.042;2023-07-20T04:22:13;4.20;;;3.70;;
48403;SDS011;34202;52.536;6.042;2023-07-20T04:27:15;4.50;;;4.10;;
48403;SDS011;34202;52.536;6.042;2023-07-20T04:32:15;12.50;;;4.20;;
48403;SDS011;34202;52.536;6.042;2023-07-20T04:37:16;4.90;;;3.90;;
48403;SDS011;34202;52.536;6.042;2023-07-20T04:42:16;6.60;;;3.70;;
48403;SDS011;34202;52.536;6.042;2023-07-20T04:47:16;3.70;;;3.40;;
48403;SDS011;34202;52.536;6.042;2023-07-20T04:52:17;3.20;;;3.00;;
48403;SDS011;34202;52.536;6.042;2023-07-20T04:57:17;3.50;;;3.20;;
48403;SDS011;34202;52.536;6.042;2023-07-20T05:02:17;8.10;;;4.00;;
48403;SDS011;34202;52.536;6.042;2023-07-20T05:07:18;5.80;;;3.80;;
48403;SDS011;34202;52.536;6.042;2023-07-20T05:12:19;7.20;;;3.40;;
48403;SDS011;34202;52.536;6.042;2023-07-20T05:17:19;3.70;;;3.30;;
48403;SDS011;34202;52.536;6.042;2023-07-20T05:22:20;5.60;;;3.80;;
48403;SDS011;34202;52.536;6.042;2023-07-20T05:27:20;3.80;;;3.40;;
48403;SDS011;34202;52.536;6.042;2023-07-20T05:32:21;2.50;;;2.30;;
48403;SDS011;34202;52.536;6.042;2023-07-20T05:37:21;3.50;;;2.90;;
48403;SDS011;34202;52.536;6.042;2023-07-20T05:42:22;3.10;;;2.30;;
48403;SDS011;34202;52.536;6.042;2023-07-20T05:47:22;2.40;;;2.20;;
48403;SDS011;34202;52.536;6.042;2023-07-20T05:52:22;2.50;;;2.10;;
48403;SDS011;34202;52.536;6.042;2023-07-20T05:57:23;3.20;;;2.90;;
48403;SDS011;34202;52.536;6.042;2023-07-20T06:02:23;2.30;;;2.10;;
48403;SDS011;34202;52.536;6.042;2023-07-20T06:07:23;4.10;;;2.30;;
48403;SDS011;34202;52.536;6.042;2023-07-20T06:12:24;1.50;;;1.30;;
48403;SDS011;34202;52.536;6.042;2023-07-20T06:17:24;3.00;;;1.30;;
48403;SDS011;34202;52.536;6.042;2023-07-20T06:22:24;1.40;;;1.30;;
48403;SDS011;34202;52.536;6.042;2023-07-20T06:27:25;4.00;;;1.70;;
48403;SDS011;34202;52.536;6.042;2023-07-20T06:32:25;3.10;;;1.40;;
48403;SDS011;34202;52.536;6.042;2023-07-20T06:37:25;1.20;;;0.70;;
48403;SDS011;34202;52.536;6.042;2023-07-20T06:42:26;1.00;;;0.70;;
48403;SDS011;34202;52.536;6.042;2023-07-20T06:47:26;1.80;;;0.70;;
48403;SDS011;34202;52.536;6.042;2023-07-20T06:52:27;2.90;;;0.70;;
48403;SDS011;34202;52.536;6.042;2023-07-20T06:57:27;1.30;;;0.70;;
48403;SDS011;34202;52.536;6.042;2023-07-20T07:02:28;2.10;;;0.60;;
48403;SDS011;34202;52.536;6.042;2023-07-20T07:07:28;2.10;;;1.40;;
48403;SDS011;34202;52.536;6.042;2023-07-20T07:12:28;3.40;;;0.70;;
48403;SDS011;34202;52.536;6.042;2023-07-20T07:17:29;0.80;;;0.60;;
48403;SDS011;34202;52.536;6.042;2023-07-20T07:22:30;2.30;;;0.50;;
48403;SDS011;34202;52.536;6.042;2023-07-20T07:27:30;5.00;;;1.60;;
48403;SDS011;34202;52.536;6.042;2023-07-20T07:32:31;2.30;;;0.40;;
48403;SDS011;34202;52.536;6.042;2023-07-20T07:37:31;2.30;;;0.60;;
48403;SDS011;34202;52.536;6.042;2023-07-20T07:42:32;0.50;;;0.50;;
48403;SDS011;34202;52.536;6.042;2023-07-20T07:47:32;0.60;;;0.50;;
48403;SDS011;34202;52.536;6.042;2023-07-20T07:52:33;0.40;;;0.30;;
48403;SDS011;34202;52.536;6.042;2023-07-20T07:57:33;0.80;;;0.40;;
48403;SDS011;34202;52.536;6.042;2023-07-20T08:02:33;1.70;;;0.50;;
48403;SDS011;34202;52.536;6.042;2023-07-20T08:07:34;3.30;;;0.70;;
48403;SDS011;34202;52.536;6.042;2023-07-20T08:12:34;0.80;;;0.50;;
48403;SDS011;34202;52.536;6.042;2023-07-20T08:17:35;3.50;;;0.50;;
48403;SDS011;34202;52.536;6.042;2023-07-20T08:22:35;1.90;;;0.50;;
48403;SDS011;34202;52.536;6.042;2023-07-20T08:27:36;2.20;;;0.50;;
48403;SDS011;34202;52.536;6.042;2023-07-20T08:32:37;1.80;;;0.50;;
48403;SDS011;34202;52.536;6.042;2023-07-20T08:37:37;1.50;;;0.50;;
48403;SDS011;34202;52.536;6.042;2023-07-20T08:42:38;2.90;;;1.70;;
48403;SDS011;34202;52.536;6.042;2023-07-20T08:47:39;2.20;;;0.50;;
48403;SDS011;34202;52.536;6.042;2023-07-20T08:52:42;2.80;;;0.60;;
48403;SDS011;34202;52.536;6.042;2023-07-20T08:57:42;0.70;;;0.40;;
48403;SDS011;34202;52.536;6.042;2023-07-20T09:02:47;1.10;;;0.60;;
48403;SDS011;34202;52.536;6.042;2023-07-20T09:07:53;1.40;;;0.80;;
48403;SDS011;34202;52.536;6.042;2023-07-20T09:12:54;7.30;;;4.60;;
48403;SDS011;34202;52.536;6.042;2023-07-20T09:17:55;6.20;;;1.90;;
48403;SDS011;34202;52.536;6.042;2023-07-20T09:22:56;3.40;;;1.50;;
48403;SDS011;34202;52.536;6.042;2023-07-20T09:27:56;3.50;;;1.20;;
48403;SDS011;34202;52.536;6.042;2023-07-20T09:32:56;1.90;;;1.00;;
48403;SDS011;34202;52.536;6.042;2023-07-20T09:38:00;3.10;;;1.00;;
48403;SDS011;34202;52.536;6.042;2023-07-20T09:43:02;1.50;;;1.00;;
48403;SDS011;34202;52.536;6.042;2023-07-20T09:48:05;1.00;;;0.80;;
48403;SDS011;34202;52.536;6.042;2023-07-20T09:53:07;1.40;;;0.60;;
48403;SDS011;34202;52.536;6.042;2023-07-20T09:58:08;1.40;;;1.00;;
48403;SDS011;34202;52.536;6.042;2023-07-20T10:03:09;0.90;;;0.60;;
48403;SDS011;34202;52.536;6.042;2023-07-20T10:08:12;2.90;;;0.70;;
48403;SDS011;34202;52.536;6.042;2023-07-20T10:13:17;1.80;;;1.10;;
48403;SDS011;34202;52.536;6.042;2023-07-20T10:18:25;1.70;;;0.70;;
48403;SDS011;34202;52.536;6.042;2023-07-20T10:23:29;0.60;;;0.60;;
48403;SDS011;34202;52.536;6.042;2023-07-20T10:28:31;0.60;;;0.60;;
48403;SDS011;34202;52.536;6.042;2023-07-20T10:33:32;1.00;;;0.80;;
48403;SDS011;34202;52.536;6.042;2023-07-20T10:38:42;1.80;;;1.30;;
48403;SDS011;34202;52.536;6.042;2023-07-20T10:43:43;1.10;;;0.60;;
48403;SDS011;34202;52.536;6.042;2023-07-20T10:49:01;0.50;;;0.50;;
48403;SDS011;34202;52.536;6.042;2023-07-20T10:54:07;0.80;;;0.70;;
48403;SDS011;34202;52.536;6.042;2023-07-20T10:59:18;0.70;;;0.60;;
48403;SDS011;34202;52.536;6.042;2023-07-20T11:04:20;0.70;;;0.60;;
48403;SDS011;34202;52.536;6.042;2023-07-20T11:09:41;2.20;;;0.80;;
48403;SDS011;34202;52.536;6.042;2023-07-20T11:14:43;2.40;;;0.80;;
48403;SDS011;34202;52.536;6.042;2023-07-20T11:19:57;4.90;;;0.80;;
48403;SDS011;34202;52.536;6.042;2023-07-20T11:24:58;4.10;;;1.60;;
48403;SDS011;34202;52.536;6.042;2023-07-20T11:29:59;2.40;;;1.00;;
48403;SDS011;34202;52.536;6.042;2023-07-20T11:34:59;3.60;;;0.90;;
48403;SDS011;34202;52.536;6.042;2023-07-20T11:39:59;0.90;;;0.70;;
48403;SDS011;34202;52.536;6.042;2023-07-20T11:45:01;1.30;;;0.70;;
48403;SDS011;34202;52.536;6.042;2023-07-20T11:50:05;1.00;;;0.60;;
48403;SDS011;34202;52.536;6.042;2023-07-20T11:55:06;0.60;;;0.60;;
48403;SDS011;34202;52.536;6.042;2023-07-20T12:00:07;0.70;;;0.50;;
48403;SDS011;34202;52.536;6.042;2023-07-20T12:05:11;0.50;;;0.50;;
48403;SDS011;34202;52.536;6.042;2023-07-20T12:10:12;3.20;;;0.70;;
48403;SDS011;34202;52.536;6.042;2023-07-20T12:25:45;1.10;;;0.50;;
48403;SDS011;34202;52.536;6.042;2023-07-20T12:30:47;0.50;;;0.40;;
48403;SDS011;34202;52.536;6.042;2023-07-20T12:35:56;0.40;;;0.40;;
48403;SDS011;34202;52.536;6.042;2023-07-20T12:40:59;1.00;;;0.70;;
48403;SDS011;34202;52.536;6.042;2023-07-20T12:46:03;2.10;;;0.70;;
48403;SDS011;34202;52.536;6.042;2023-07-20T12:51:04;1.30;;;0.60;;
48403;SDS011;34202;52.536;6.042;2023-07-20T12:56:04;0.50;;;0.50;;
48403;SDS011;34202;52.536;6.042;2023-07-20T13:01:05;2.80;;;0.50;;
48403;SDS011;34202;52.536;6.042;2023-07-20T13:06:06;1.00;;;0.40;;
48403;SDS011;34202;52.536;6.042;2023-07-20T13:11:06;1.30;;;0.50;;
48403;SDS011;34202;52.536;6.042;2023-07-20T13:16:06;0.70;;;0.40;;
48403;SDS011;34202;52.536;6.042;2023-07-20T13:21:07;0.30;;;0.30;;
48403;SDS011;34202;52.536;6.042;2023-07-20T13:26:10;1.50;;;0.60;;
48403;SDS011;34202;52.536;6.042;2023-07-20T13:31:10;0.60;;;0.40;;
48403;SDS011;34202;52.536;6.042;2023-07-20T13:36:11;0.30;;;0.30;;
48403;SDS011;34202;52.536;6.042;2023-07-20T13:41:11;0.70;;;0.50;;
48403;SDS011;34202;52.536;6.042;2023-07-20T13:46:12;1.10;;;0.50;;
48403;SDS011;34202;52.536;6.042;2023-07-20T13:51:12;1.40;;;0.60;;
48403;SDS011;34202;52.536;6.042;2023-07-20T13:56:13;0.80;;;0.60;;
48403;SDS011;34202;52.536;6.042;2023-07-20T14:01:14;5.20;;;0.90;;
48403;SDS011;34202;52.536;6.042;2023-07-20T14:06:14;0.80;;;0.50;;
48403;SDS011;34202;52.536;6.042;2023-07-20T14:11:15;2.30;;;0.30;;
48403;SDS011;34202;52.536;6.042;2023-07-20T14:16:15;2.50;;;0.50;;
48403;SDS011;34202;52.536;6.042;2023-07-20T14:21:17;2.50;;;0.60;;
48403;SDS011;34202;52.536;6.042;2023-07-20T14:26:18;2.10;;;0.60;;
48403;SDS011;34202;52.536;6.042;2023-07-20T14:31:19;0.80;;;0.50;;
48403;SDS011;34202;52.536;6.042;2023-07-20T14:36:19;1.20;;;0.50;;
48403;SDS011;34202;52.536;6.042;2023-07-20T14:41:20;0.60;;;0.50;;
48403;SDS011;34202;52.536;6.042;2023-07-20T14:46:21;2.50;;;0.60;;
48403;SDS011;34202;52.536;6.042;2023-07-20T14:51:22;0.50;;;0.50;;
48403;SDS011;34202;52.536;6.042;2023-07-20T14:56:22;1.30;;;1.00;;
48403;SDS011;34202;52.536;6.042;2023-07-20T15:01:22;0.70;;;0.70;;
48403;SDS011;34202;52.536;6.042;2023-07-20T15:06:23;2.40;;;0.90;;
48403;SDS011;34202;52.536;6.042;2023-07-20T15:11:23;0.60;;;0.60;;
48403;SDS011;34202;52.536;6.042;2023-07-20T15:16:24;1.70;;;0.60;;
48403;SDS011;34202;52.536;6.042;2023-07-20T15:21:24;1.80;;;0.80;;
48403;SDS011;34202;52.536;6.042;2023-07-20T15:26:25;1.30;;;0.70;;
48403;SDS011;34202;52.536;6.042;2023-07-20T15:31:26;1.10;;;0.80;;
48403;SDS011;34202;52.536;6.042;2023-07-20T15:36:27;1.40;;;0.90;;
48403;SDS011;34202;52.536;6.042;2023-07-20T15:41:28;0.80;;;0.70;;
48403;SDS011;34202;52.536;6.042;2023-07-20T15:51:38;1.80;;;0.90;;
48403;SDS011;34202;52.536;6.042;2023-07-20T15:56:43;2.20;;;0.60;;
48403;SDS011;34202;52.536;6.042;2023-07-20T16:01:44;1.60;;;0.80;;
48403;SDS011;34202;52.536;6.042;2023-07-20T16:06:45;2.30;;;1.00;;
48403;SDS011;34202;52.536;6.042;2023-07-20T16:11:45;2.50;;;1.00;;
48403;SDS011;34202;52.536;6.042;2023-07-20T16:16:45;1.90;;;0.70;;
48403;SDS011;34202;52.536;6.042;2023-07-20T16:21:46;1.30;;;0.80;;
48403;SDS011;34202;52.536;6.042;2023-07-20T16:26:46;0.90;;;0.70;;
48403;SDS011;34202;52.536;6.042;2023-07-20T16:31:47;0.80;;;0.70;;
48403;SDS011;34202;52.536;6.042;2023-07-20T16:36:47;2.00;;;1.00;;
48403;SDS011;34202;52.536;6.042;2023-07-20T16:41:48;2.10;;;0.90;;
48403;SDS011;34202;52.536;6.042;2023-07-20T16:46:48;4.30;;;0.90;;
48403;SDS011;34202;52.536;6.042;2023-07-20T16:51:49;0.80;;;0.80;;
48403;SDS011;34202;52.536;6.042;2023-07-20T16:56:50;2.20;;;1.00;;
48403;SDS011;34202;52.536;6.042;2023-07-20T17:01:50;5.40;;;0.70;;
48403;SDS011;34202;52.536;6.042;2023-07-20T17:06:53;2.80;;;0.80;;
48403;SDS011;34202;52.536;6.042;2023-07-20T17:11:54;1.70;;;0.80;;
48403;SDS011;34202;52.536;6.042;2023-07-20T17:16:54;2.10;;;0.60;;
48403;SDS011;34202;52.536;6.042;2023-07-20T17:21:54;1.90;;;0.50;;
48403;SDS011;34202;52.536;6.042;2023-07-20T17:26:55;0.50;;;0.50;;
48403;SDS011;34202;52.536;6.042;2023-07-20T17:31:55;2.00;;;0.90;;
48403;SDS011;34202;52.536;6.042;2023-07-20T17:36:56;1.00;;;0.70;;
48403;SDS011;34202;52.536;6.042;2023-07-20T17:41:56;2.30;;;0.80;;
48403;SDS011;34202;52.536;6.042;2023-07-20T17:46:56;1.40;;;0.80;;
48403;SDS011;34202;52.536;6.042;2023-07-20T17:51:57;1.40;;;0.80;;
48403;SDS011;34202;52.536;6.042;2023-07-20T17:56:58;1.80;;;1.10;;
48403;SDS011;34202;52.536;6.042;2023-07-20T18:01:59;3.10;;;0.90;;
48403;SDS011;34202;52.536;6.042;2023-07-20T18:06:59;1.30;;;1.00;;
48403;SDS011;34202;52.536;6.042;2023-07-20T18:11:59;0.90;;;0.80;;
48403;SDS011;34202;52.536;6.042;2023-07-20T18:17:00;1.90;;;0.80;;
48403;SDS011;34202;52.536;6.042;2023-07-20T18:22:00;2.60;;;0.70;;
48403;SDS011;34202;52.536;6.042;2023-07-20T18:27:01;0.70;;;0.70;;
48403;SDS011;34202;52.536;6.042;2023-07-20T18:32:01;7.80;;;0.80;;
48403;SDS011;34202;52.536;6.042;2023-07-20T18:37:02;1.80;;;0.60;;
48403;SDS011;34202;52.536;6.042;2023-07-20T18:42:02;2.30;;;0.90;;
48403;SDS011;34202;52.536;6.042;2023-07-20T18:47:03;1.10;;;0.50;;
48403;SDS011;34202;52.536;6.042;2023-07-20T18:52:05;2.30;;;0.50;;
48403;SDS011;34202;52.536;6.042;2023-07-20T18:57:05;0.80;;;0.60;;
48403;SDS011;34202;52.536;6.042;2023-07-20T19:02:08;1.80;;;0.70;;
48403;SDS011;34202;52.536;6.042;2023-07-20T19:07:08;0.80;;;0.60;;
48403;SDS011;34202;52.536;6.042;2023-07-20T19:12:09;1.70;;;0.80;;
48403;SDS011;34202;52.536;6.042;2023-07-20T19:17:09;0.50;;;0.50;;
48403;SDS011;34202;52.536;6.042;2023-07-20T19:22:10;2.10;;;0.70;;
48403;SDS011;34202;52.536;6.042;2023-07-20T19:27:10;1.30;;;0.60;;
48403;SDS011;34202;52.536;6.042;2023-07-20T19:32:10;1.60;;;0.70;;
48403;SDS011;34202;52.536;6.042;2023-07-20T19:37:11;1.70;;;1.10;;
48403;SDS011;34202;52.536;6.042;2023-07-20T19:42:11;2.70;;;1.90;;
48403;SDS011;34202;52.536;6.042;2023-07-20T19:47:12;1.20;;;1.10;;
48403;SDS011;34202;52.536;6.042;2023-07-20T19:52:12;2.50;;;1.30;;
48403;SDS011;34202;52.536;6.042;2023-07-20T19:57:14;1.60;;;1.10;;
48403;SDS011;34202;52.536;6.042;2023-07-20T20:02:14;2.80;;;1.40;;
48403;SDS011;34202;52.536;6.042;2023-07-20T20:07:14;4.00;;;1.40;;
48403;SDS011;34202;52.536;6.042;2023-07-20T20:12:16;4.00;;;1.30;;
48403;SDS011;34202;52.536;6.042;2023-07-20T20:17:18;3.70;;;1.30;;
48403;SDS011;34202;52.536;6.042;2023-07-20T20:22:19;3.50;;;1.40;;
48403;SDS011;34202;52.536;6.042;2023-07-20T20:27:19;1.90;;;1.60;;
48403;SDS011;34202;52.536;6.042;2023-07-20T20:32:19;1.90;;;1.50;;
48403;SDS011;34202;52.536;6.042;2023-07-20T20:37:20;3.10;;;1.90;;
48403;SDS011;34202;52.536;6.042;2023-07-20T20:42:24;1.50;;;1.40;;
48403;SDS011;34202;52.536;6.042;2023-07-20T20:47:25;5.60;;;1.60;;
48403;SDS011;34202;52.536;6.042;2023-07-20T20:52:25;3.60;;;1.70;;
48403;SDS011;34202;52.536;6.042;2023-07-20T20:57:26;1.90;;;1.60;;
48403;SDS011;34202;52.536;6.042;2023-07-20T21:02:26;3.30;;;1.50;;
48403;SDS011;34202;52.536;6.042;2023-07-20T21:07:26;3.30;;;1.60;;
48403;SDS011;34202;52.536;6.042;2023-07-20T21:12:27;6.40;;;1.90;;
48403;SDS011;34202;52.536;6.042;2023-07-20T21:17:27;2.00;;;1.50;;
48403;SDS011;34202;52.536;6.042;2023-07-20T21:22:29;2.20;;;1.60;;
48403;SDS011;34202;52.536;6.042;2023-07-20T21:27:30;2.80;;;1.40;;
48403;SDS011;34202;52.536;6.042;2023-07-20T21:32:30;2.50;;;1.50;;
48403;SDS011;34202;52.536;6.042;2023-07-20T21:37:31;2.90;;;1.70;;
48403;SDS011;34202;52.536;6.042;2023-07-20T21:42:31;2.30;;;1.70;;
48403;SDS011;34202;52.536;6.042;2023-07-20T21:47:31;2.10;;;1.90;;
48403;SDS011;34202;52.536;6.042;2023-07-20T21:52:32;1.90;;;1.70;;
48403;SDS011;34202;52.536;6.042;2023-07-20T21:57:33;4.20;;;2.10;;
48403;SDS011;34202;52.536;6.042;2023-07-20T22:02:33;2.10;;;1.90;;
48403;SDS011;34202;52.536;6.042;2023-07-20T22:07:34;4.90;;;2.10;;
48403;SDS011;34202;52.536;6.042;2023-07-20T22:12:34;2.20;;;2.00;;
48403;SDS011;34202;52.536;6.042;2023-07-20T22:17:35;5.70;;;2.50;;
48403;SDS011;34202;52.536;6.042;2023-07-20T22:22:36;2.40;;;2.20;;
48403;SDS011;34202;52.536;6.042;2023-07-20T22:27:36;2.50;;;2.00;;
48403;SDS011;34202;52.536;6.042;2023-07-20T22:32:37;6.90;;;2.50;;
48403;SDS011;34202;52.536;6.042;2023-07-20T22:37:38;4.00;;;2.70;;
48403;SDS011;34202;52.536;6.042;2023-07-20T22:42:39;2.90;;;2.50;;
48403;SDS011;34202;52.536;6.042;2023-07-20T22:47:40;3.00;;;2.70;;
48403;SDS011;34202;52.536;6.042;2023-07-20T22:52:44;4.00;;;2.90;;
48403;SDS011;34202;52.536;6.042;2023-07-20T22:57:44;5.50;;;2.70;;
48403;SDS011;34202;52.536;6.042;2023-07-20T23:02:45;4.80;;;3.40;;
48403;SDS011;34202;52.536;6.042;2023-07-20T23:07:45;5.50;;;2.70;;
48403;SDS011;34202;52.536;6.042;2023-07-20T23:12:45;3.00;;;2.00;;
48403;SDS011;34202;52.536;6.042;2023-07-20T23:17:46;2.80;;;2.50;;
48403;SDS011;34202;52.536;6.042;2023-07-20T23:22:48;3.40;;;2.80;;
48403;SDS011;34202;52.536;6.042;2023-07-20T23:27:50;4.00;;;2.20;;
48403;SDS011;34202;52.536;6.042;2023-07-20T23:32:55;5.10;;;1.70;;
48403;SDS011;34202;52.536;6.042;2023-07-20T23:37:56;2.70;;;2.50;;
48403;SDS011;34202;52.536;6.042;2023-07-20T23:42:56;3.70;;;2.50;;
48403;SDS011;34202;52.536;6.042;2023-07-20T23:47:56;3.20;;;2.90;;
48403;SDS011;34202;52.536;6.042;2023-07-20T23:52:57;4.60;;;2.70;;
48403;SDS011;34202;52.536;6.042;2023-07-20T23:57:57;5.30;;;3.20;;
